createdAt,value
2019-03-09T00:03:56.788Z,7.17
2019-03-09T00:10:02.715Z,6.13
2019-03-09T00:16:08.464Z,4.10
2019-03-09T00:22:14.394Z,5.30
2019-03-09T00:28:25.606Z,4.47
2019-03-09T00:34:31.382Z,6.00
2019-03-09T00:40:37.288Z,8.53
2019-03-09T00:46:43.047Z,6.00
2019-03-09T00:52:48.850Z,6.00
2019-03-09T00:58:54.639Z,5.50
2019-03-09T01:05:00.506Z,4.57
2019-03-09T01:11:06.272Z,6.00
2019-03-09T01:17:12.306Z,4.37
2019-03-09T01:23:18.814Z,5.47
2019-03-09T01:29:24.846Z,6.30
2019-03-09T01:35:30.961Z,7.47
2019-03-09T01:41:36.819Z,4.20
2019-03-09T01:47:42.775Z,7.17
2019-03-09T01:53:48.577Z,3.97
2019-03-09T01:59:54.654Z,3.37
2019-03-09T02:06:00.403Z,5.27
2019-03-09T02:12:06.452Z,4.00
2019-03-09T02:18:12.652Z,4.33
2019-03-09T02:24:18.639Z,6.17
2019-03-09T02:30:24.592Z,5.97
2019-03-09T02:36:30.819Z,3.63
2019-03-09T02:42:37.152Z,5.40
2019-03-09T02:48:43.103Z,6.60
2019-03-09T02:54:49.694Z,6.57
2019-03-09T03:01:17.624Z,4.37
2019-03-09T03:07:48.896Z,7.53
2019-03-09T03:13:54.754Z,4.20
2019-03-09T03:20:00.657Z,4.00
2019-03-09T03:26:06.748Z,3.50
2019-03-09T03:32:12.663Z,4.00
2019-03-09T03:38:18.424Z,3.70
2019-03-09T03:44:24.650Z,3.20
2019-03-09T03:50:30.601Z,3.33
2019-03-09T03:56:36.476Z,3.20
2019-03-09T04:02:42.291Z,3.20
2019-03-09T04:08:48.569Z,3.63
2019-03-09T04:14:54.606Z,2.87
2019-03-09T04:21:02.030Z,3.20
2019-03-09T04:27:07.992Z,3.60
2019-03-09T04:33:14.438Z,5.00
2019-03-09T04:39:20.791Z,5.43
2019-03-09T04:45:27.104Z,8.17
2019-03-09T04:51:33.486Z,8.77
2019-03-09T04:57:39.781Z,6.57
2019-03-09T05:03:46.062Z,5.70
2019-03-09T05:10:29.192Z,6.57
2019-03-09T05:16:35.001Z,6.73
2019-03-09T05:22:40.835Z,8.30
2019-03-09T05:28:47.214Z,7.80
2019-03-09T05:34:53.113Z,8.30
2019-03-09T05:40:58.863Z,9.57
2019-03-09T05:47:04.800Z,9.03
2019-03-09T05:53:17.555Z,9.97
2019-03-09T05:59:23.362Z,11.57
2019-03-09T06:05:45.154Z,13.20
2019-03-09T06:11:51.034Z,12.30
2019-03-09T06:17:56.859Z,11.30
2019-03-09T06:24:02.609Z,11.90
2019-03-09T06:30:08.737Z,11.50
2019-03-09T06:37:12.403Z,11.53
2019-03-09T06:43:18.301Z,11.53
2019-03-09T06:49:25.195Z,13.63
2019-03-09T06:55:31.218Z,12.43
2019-03-09T07:01:37.424Z,12.47
2019-03-09T07:07:43.751Z,11.63
2019-03-09T07:13:53.191Z,12.83
2019-03-09T07:19:57.703Z,12.47
2019-03-09T07:26:03.662Z,11.67
2019-03-09T07:32:09.565Z,11.37
2019-03-09T07:44:32.542Z,10.97
2019-03-09T07:50:38.759Z,11.17
2019-03-09T07:56:44.554Z,11.33
2019-03-09T08:02:50.448Z,10.30
2019-03-09T08:08:56.186Z,8.30
2019-03-09T08:15:03.242Z,9.73
2019-03-09T08:21:09.101Z,9.30
2019-03-09T08:27:15.344Z,8.77
2019-03-09T08:33:21.255Z,9.23
2019-03-09T08:39:27.355Z,6.90
2019-03-09T08:45:33.357Z,7.00
2019-03-09T08:51:39.366Z,6.63
2019-03-09T08:57:46.178Z,8.30
2019-03-09T09:03:52.710Z,5.90
2019-03-09T09:09:58.611Z,5.40
2019-03-09T09:16:04.383Z,8.90
2019-03-09T09:22:10.671Z,7.70
2019-03-09T09:28:16.642Z,10.43
2019-03-09T09:34:23.173Z,4.50
2019-03-09T09:40:29.242Z,5.93
2019-03-09T09:46:35.656Z,4.47
2019-03-09T09:52:41.837Z,8.20
2019-03-09T09:58:47.569Z,6.07
2019-03-09T10:04:53.487Z,5.57
2019-03-09T10:10:59.814Z,5.27
2019-03-09T10:17:05.639Z,5.73
2019-03-09T10:23:11.418Z,8.83
2019-03-09T10:29:17.226Z,8.40
2019-03-09T10:35:24.007Z,5.67
2019-03-09T10:41:30.241Z,5.90
2019-03-09T10:47:36.421Z,5.63
2019-03-09T10:53:42.545Z,6.70
2019-03-09T10:59:48.666Z,4.77
2019-03-09T11:05:54.935Z,4.20
2019-03-09T11:12:01.471Z,5.47
2019-03-09T11:18:07.868Z,7.57
2019-03-09T11:24:14.045Z,6.97
2019-03-09T11:30:23.229Z,9.33
2019-03-09T11:36:29.153Z,7.60
2019-03-09T11:42:35.025Z,7.07
2019-03-09T11:48:43.063Z,5.67
2019-03-09T11:54:49.003Z,9.70
2019-03-09T12:00:55.089Z,5.20
2019-03-09T12:07:02.125Z,6.00
2019-03-09T12:13:08.196Z,7.33
2019-03-09T12:19:13.994Z,5.53
2019-03-09T12:25:20.229Z,5.77
2019-03-09T12:31:26.558Z,8.20
2019-03-09T12:37:32.304Z,5.07
2019-03-09T12:43:38.413Z,2.63
2019-03-09T12:49:44.454Z,6.00
2019-03-09T12:55:50.533Z,8.63
2019-03-09T13:01:56.267Z,7.67
2019-03-09T13:08:02.323Z,9.73
2019-03-09T13:14:08.342Z,7.80
2019-03-09T13:20:14.215Z,9.97
2019-03-09T13:26:20.104Z,13.03
2019-03-09T13:32:25.912Z,16.53
2019-03-09T13:38:31.660Z,16.50
2019-03-09T13:44:37.425Z,13.67
2019-03-09T13:50:43.275Z,13.77
2019-03-09T13:56:49.093Z,10.83
2019-03-09T14:02:55.021Z,15.67
2019-03-09T14:09:01.126Z,13.57
2019-03-09T14:15:08.033Z,19.03
2019-03-09T14:21:14.263Z,21.90
2019-03-09T14:27:20.096Z,16.20
2019-03-09T14:33:25.877Z,23.63
2019-03-09T14:39:31.779Z,22.40
2019-03-09T14:45:37.541Z,29.90
2019-03-09T14:51:43.321Z,16.37
2019-03-09T14:57:49.297Z,22.93
2019-03-09T15:03:55.064Z,30.43
2019-03-09T15:10:00.982Z,25.20
2019-03-09T15:16:06.849Z,22.30
2019-03-09T15:22:12.822Z,17.17
2019-03-09T15:28:18.604Z,30.53
2019-03-09T15:34:24.384Z,27.10
2019-03-09T15:40:30.151Z,25.47
2019-03-09T15:46:35.916Z,23.67
2019-03-09T15:52:41.769Z,10.93
2019-03-09T15:58:47.551Z,7.50
2019-03-09T16:04:53.365Z,7.87
2019-03-09T16:10:59.288Z,7.37
2019-03-09T16:17:08.481Z,9.20
2019-03-09T16:23:14.306Z,2.87
2019-03-09T16:29:20.091Z,2.23
2019-03-09T16:35:26.418Z,4.90
2019-03-09T16:41:33.206Z,8.13
2019-03-09T16:47:39.026Z,3.37
2019-03-09T16:53:44.832Z,5.77
2019-03-09T16:59:51.007Z,6.63
2019-03-09T17:05:57.122Z,7.37
2019-03-09T17:12:02.957Z,8.43
2019-03-09T17:18:08.738Z,9.93
2019-03-09T17:24:14.550Z,8.20
2019-03-09T17:30:20.351Z,6.97
2019-03-09T17:36:26.106Z,7.00
2019-03-09T17:42:31.936Z,7.47
2019-03-09T17:48:37.724Z,10.33
2019-03-09T17:54:43.916Z,10.13
2019-03-09T18:00:49.745Z,9.30
2019-03-09T18:06:55.523Z,10.13
2019-03-09T18:13:01.380Z,13.93
2019-03-09T18:19:07.175Z,10.23
2019-03-09T18:25:12.932Z,9.03
2019-03-09T18:31:18.696Z,9.53
2019-03-09T18:37:24.488Z,9.27
2019-03-09T18:43:30.288Z,8.33
2019-03-09T18:49:36.305Z,10.77
2019-03-09T18:55:42.375Z,7.60
2019-03-09T19:01:48.160Z,12.23
2019-03-09T19:07:53.956Z,11.47
2019-03-09T19:13:59.774Z,14.03
2019-03-09T19:20:06.286Z,10.10
2019-03-09T19:26:12.062Z,10.30
2019-03-09T19:32:17.954Z,10.93
2019-03-09T19:38:23.785Z,10.37
2019-03-09T19:44:29.610Z,12.00
2019-03-09T19:50:36.040Z,9.00
2019-03-09T19:56:41.967Z,8.67
2019-03-09T20:02:47.817Z,8.50
2019-03-09T20:08:53.601Z,15.30
2019-03-09T20:14:59.393Z,11.67
2019-03-09T20:21:05.350Z,12.70
2019-03-09T20:27:11.230Z,8.20
2019-03-09T20:33:17.125Z,10.77
2019-03-09T20:39:23.026Z,15.87
2019-03-09T20:45:28.943Z,18.03
2019-03-09T20:51:37.363Z,16.00
2019-03-09T20:57:43.271Z,12.53
2019-03-09T21:03:49.209Z,10.27
2019-03-09T21:09:55.172Z,11.83
2019-03-09T21:16:01.256Z,10.13
2019-03-09T21:22:07.166Z,9.63
2019-03-09T21:28:13.006Z,10.17
2019-03-09T21:34:19.081Z,8.10
2019-03-09T21:40:25.076Z,8.07
2019-03-09T21:46:30.858Z,8.60
2019-03-09T21:52:36.671Z,7.70
2019-03-09T21:58:42.496Z,10.17
2019-03-09T22:04:48.272Z,10.77
2019-03-09T22:10:54.094Z,11.53
2019-03-09T22:16:59.915Z,10.20
2019-03-09T22:23:05.686Z,12.30
2019-03-09T22:29:11.557Z,11.73
2019-03-09T22:35:17.894Z,12.37
2019-03-09T22:41:23.673Z,12.83
2019-03-09T22:47:29.413Z,12.03
2019-03-09T22:53:35.215Z,17.90
2019-03-09T22:59:41.004Z,14.83
2019-03-09T23:05:46.792Z,13.57
2019-03-09T23:11:52.835Z,17.97
2019-03-09T23:17:58.959Z,14.57
2019-03-09T23:24:04.838Z,16.70
2019-03-09T23:30:16.136Z,21.17
2019-03-09T23:36:22.188Z,17.50
2019-03-09T23:42:28.110Z,16.00
2019-03-09T23:48:34.552Z,16.40
2019-03-09T23:54:40.809Z,17.90
